Loleta, California
Current Conditions -  °F | °C
As of 1:35 AM on Saturday 29 Nov 2014 (Local Time) from KFOT Reporting Station
Overcast Overcast  
Wind Chill: 12°   Ceiling: 7500
Heat Index: 12°   Visibility: 10mi
Dew Point: 11°   Wind: 13mph
Humidity: 94%   Direction: 120°ESE
Pressure: 29.75"   Gusts: NA
Location:  40.64°N, 124.23°W
Report Text: KFOT 290935Z AUTO 12011KT 10SM FEW030 SCT042 OVC075 12/11 A2975 RMK AO1
Loading
Personal Weather Stations






























Interactive Weather Map New forecast layout! Learn more

10-Day Weather Forecast

Advertisements
Track Severe Weather on mobile